Elliot Chaparral Reserve, California Weather observations

Data are for 10 minute period ending at time listed.
 Day   Time   Solar   Ave.   Ave.  Ave.  Vector  Max.   Baro.   Total    
  of    of     Rad.   Air    Rel.  Wind   Wind   Wind  Press.  Precip.   
Year   Day            Temp.  Hum.  Speed  Dir.   Gust                    
2016   (PST)  Kw/m2    F      %     mph   deg.    mph    mb.     in.     
-------------------------------------------------------------------------
 235   12:40   0.89   83.4    36    8.8   264    14.3   984.4    0.00 
 235   12:50   0.88   84.9    35    8.4   290    14.0   984.3    0.00 
 235   13:00   0.87   83.4    36    9.8   274    15.2   984.2    0.00 
 235   13:10   0.86   84.0    36    9.5   264    13.6   984.1    0.00 
 235   13:20   0.85   82.5    40   10.9   261    15.1   984.1    0.00 
 235   13:30   0.83   81.7    42   10.4   271    15.1   984.1    0.00 
 235   13:40   0.81   81.2    44   10.9   271    16.0   984.1    0.00 
 235   13:50   0.80   81.2    44    9.8   288    14.9   984.1    0.00 
 235   14:00   0.78   80.5    45   10.6   290    15.2   984.1    0.00 
 235   14:10   0.75   80.1    46   11.3   292    15.4   984.1    0.00 
 235   14:20   0.73   79.6    47   11.5   289    16.4   984.0    0.00 
 235   14:30   0.71   79.7    48   11.4   279    16.0   984.0    0.00 
 235   14:40   0.68   78.9    51   11.7   283    16.1   983.9    0.00 
 235   14:50   0.65   78.3    52   10.4   294    15.3   983.9    0.00 
 235   15:00   0.63   78.3    52    9.9   285    13.8   983.9    0.00 
 235   15:10   0.60   78.1    52    8.8   285    13.7   983.9    0.00 
 235   15:20   0.57   78.0    52    9.7   284    13.2   983.9    0.00 
 235   15:30   0.54   77.8    53   10.4   281    14.5   983.9    0.00 
 235   15:40   0.51   77.3    54   11.6   277    15.6   983.9    0.00 
 235   15:50   0.48   76.6    56   11.5   292    15.2   984.0    0.00 
 235   16:00   0.45   75.6    59   11.9   285    16.4   984.0    0.00 
 235   16:10   0.41   75.3    59   11.5   278    15.9   984.0    0.00 
 235   16:20   0.38   75.2    58   10.7   298    14.2   984.1    0.00 
 235   16:30   0.34   74.6    59   11.2   288    14.3   984.1    0.00 
 235   16:40   0.31   73.9    62   10.9   300    14.0   984.2    0.00 
 235   16:50   0.27   73.6    63   10.3   298    13.1   984.2    0.00 
 235   17:00   0.24   73.6    63    9.3   297    13.3   984.2    0.00 
 235   17:10   0.20   73.4    62    8.3   312    11.6   984.2    0.00 
 235   17:20   0.17   73.2    63    7.5   312     9.6   984.2    0.00 
 235   17:30   0.14   72.7    64    7.3   315     9.6   984.2    0.00 
 235   17:40   0.11   72.6    64    7.2   300    10.0   984.3    0.00 
 235   17:50   0.08   71.9    65    7.9   288    10.4   984.3    0.00 
 235   18:00   0.05   70.6    68    8.1   298    11.0   984.3    0.00 
 235   18:10   0.02   69.9    70    6.7   294     9.0   984.4    0.00 
 235   18:20   0.01   68.5    74    7.0   281     8.9   984.4    0.00 
 235   18:30   0.00   66.9    78    7.1   284     8.7   984.4    0.00 
 235   18:40   0.00   66.1    80    7.8   288     9.6   984.5    0.00 
 235   18:50   0.00   65.6    81    6.7   289     8.7   984.5    0.00 
 235   19:00   0.00   65.0    82    6.4   299     8.3   984.6    0.00 
 235   19:10   0.00   64.6    83    6.1   293     7.5   984.5    0.00 
 235   19:20   0.00   64.2    84    6.0   295     7.7   984.5    0.00 
 235   19:30   0.00   64.0    85    6.4   300     7.9   984.6    0.00 
 235   19:40   0.00   63.8    86    5.1   309     7.2   984.6    0.00 
 235   19:50   0.00   63.4    86    4.1   309     6.4   984.7    0.00 
 235   20:00   0.00   63.3    86    4.0   312     6.1   984.7    0.00 
 235   20:10   0.00   63.0    87    4.4   295     6.0   984.7    0.00 
 235   20:20   0.00   62.8    87    3.8   302     5.9   984.7    0.00 
 235   20:30   0.00   62.6    88    4.0   275     5.9   984.7    0.00 
 235   20:40   0.00   62.3    88    5.4   297     6.0   984.8    0.00 
 235   20:50   0.00   62.2    89    6.0   302     7.5   984.8    0.00 
 235   21:00   0.00   62.2    89    4.9   311     7.5   984.9    0.00 
 235   21:10   0.00   62.1    89    4.1   317     5.9   984.9    0.00 
 235   21:20   0.00   62.0    89    4.6   320     6.1   985.0    0.00 
 235   21:30   0.00   61.9    89    4.9   329     6.5   985.0    0.00 
 235   21:40   0.00   62.1    90    3.4   329     6.1   985.0    0.00 
 235   21:50   0.00   62.0    90    2.3   332     4.3   985.1    0.00 
 235   22:00   0.00   62.1    90    3.1   321     3.7   985.2    0.00 
 235   22:10   0.00   62.0    90    2.8   313     3.8   985.2    0.00 
 235   22:20   0.00   61.8    90    2.0     4     3.4   985.3    0.00 
 235   22:30   0.00   61.7    90    1.3    23     2.3   985.4    0.00 
 235   22:40   0.00   61.6    90    1.5    52     2.0   985.4    0.00 
 235   22:50   0.00   61.6    90    1.5     8     3.1   985.4    0.00 
 235   23:00   0.00   61.7    90    2.1   312     2.8   985.4    0.00 
 235   23:10   0.00   61.6    90    2.5   344     3.4   985.5    0.00 
 235   23:20   0.00   61.2    91    3.6     4     4.2   985.5    0.00 
 235   23:30   0.00   61.1    91    2.8    18     3.4   985.5    0.00 
 235   23:40   0.00   61.3    91    2.2    29     3.1   985.5    0.00 
 235   23:50   0.00   61.5    91    2.1    25     2.8   985.5    0.00 
 236    0:00   0.00   61.4    91    3.0    17     3.9   985.5    0.00 
 236    0:10   0.00   61.2    91    4.1     8     4.6   985.4    0.00 
 236    0:20   0.00   61.0    91    4.4     3     5.1   985.4    0.00 
 236    0:30   0.00   60.9    92    5.5     2     6.1   985.4    0.00 
 236    0:40   0.00   60.6    92    5.3     8     5.9   985.4    0.00 
 236    0:50   0.00   60.8    92    4.6    10     5.9   985.5    0.00 
 236    1:00   0.00   60.7    92    2.9    44     5.4   985.5    0.00 
 236    1:10   0.00   60.4    92    3.2    84     4.0   985.5    0.00 
 236    1:20   0.00   60.4    92    3.5    97     4.5   985.4    0.00 
 236    1:30   0.00   60.2    92    3.4     4     4.8   985.5    0.00 
 236    1:40   0.00   59.8    92    3.6   359     4.7   985.3    0.00 
 236    1:50   0.00   59.5    92    3.2   351     4.2   985.3    0.00 
 236    2:00   0.00   59.7    92    2.8   331     3.4   985.4    0.00 
 236    2:10   0.00   59.7    92    2.5   348     3.9   985.5    0.00 
 236    2:20   0.00   59.3    92    3.9     4     4.8   985.5    0.00 
 236    2:30   0.00   59.6    93    3.0    37     4.3   985.5    0.00 
 236    2:40   0.00   60.1    92    3.1    43     4.5   985.4    0.00 
 236    2:50   0.00   59.7    92    3.7    56     4.3   985.3    0.00 
 236    3:00   0.00   60.3    92    2.7    69     3.9   985.2    0.00 
 236    3:10   0.00   60.6    92    1.7    76     2.4   985.2    0.00 
 236    3:20   0.00   60.1    92    2.3    75     3.3   985.2    0.00 
 236    3:30   0.00   60.0    92    1.9    76     3.0   985.2    0.00 
 236    3:40   0.00   60.4    92    0.8    81     1.6   985.2    0.00 
 236    3:50   0.00   60.5    92    0.8    54     1.5   985.2    0.00 
 236    4:00   0.00   60.3    92    0.7    37     1.5   985.3    0.00 
 236    4:10   0.00   60.2    92    1.8    64     2.0   985.3    0.00 
 236    4:20   0.00   60.4    92    1.7   109     2.9   985.3    0.00 
 236    4:30   0.00   60.0    91    2.8   106     3.7   985.3    0.00 
 236    4:40   0.00   60.2    92    2.3    83     3.2   985.4    0.00 
 236    4:50   0.00   60.5    91    2.0    43     2.9   985.5    0.00 
 236    5:00   0.00   60.5    91    3.5    61     4.3   985.5    0.00 
 236    5:10   0.00   60.6    91    4.9    64     6.2   985.6    0.00 
 236    5:20   0.00   60.9    91    4.2    62     6.0   985.8    0.00 
 236    5:30   0.01   61.0    90    1.2   225     2.4   985.9    0.00 
 236    5:40   0.03   60.7    90    2.5   231     3.5   986.2    0.00 
 236    5:50   0.05   60.8    90    2.7   234     3.6   986.3    0.00 
 236    6:00   0.08   61.3    88    1.6   280     2.0   986.5    0.00 
 236    6:10   0.11   61.7    87    1.0   277     1.5   986.5    0.00 
 236    6:20   0.14   62.3    85    1.5   246     3.2   986.6    0.00 
 236    6:30   0.18   62.0    85    3.5   237     4.7   986.7    0.00 
 236    6:40   0.21   62.2    85    2.6   249     3.7   987.1    0.00 
 236    6:50   0.24   63.2    82    2.3   254     3.4   987.3    0.00 
 236    7:00   0.28   63.8    82    3.3   247     5.0   987.4    0.00 
 236    7:10   0.30   64.3    82    3.9   242     5.7   987.4    0.00 
 236    7:20   0.34   64.9    81    3.7   233     5.6   987.6    0.00 
 236    7:30   0.30   64.6    81    4.6   243     6.3   987.9    0.00 
 236    7:40   0.34   63.5    84    4.2   251     7.2   988.0    0.00 
 236    7:50   0.45   64.6    82    4.3   253     6.1   988.1    0.00 
 236    8:00   0.45   65.3    80    4.1   281     6.5   988.2    0.00 
 236    8:10   0.51   66.0    78    4.1   270     6.5   988.4    0.00 
 236    8:20   0.55   66.7    76    5.6   269     9.1   988.4    0.00 
 236    8:30   0.51   65.8    79    6.3   271     9.9   988.6    0.00 
 236    8:40   0.47   65.9    79    6.7   272     9.3   988.7    0.00 
 236    8:50   0.57   66.1    79    6.3   280    11.0   988.8    0.00 
 236    9:00   0.58   66.5    78    7.2   287     9.5   988.9    0.00 
 236    9:10   0.64   67.9    75    6.6   291     9.5   988.9    0.00 
 236    9:20   0.71   68.8    72    7.4   278    11.6   988.9    0.00 
 236    9:30   0.72   69.3    71    6.4   281    11.4   989.0    0.00 
 236    9:40   0.75   70.1    69    7.2   271    10.2   989.0    0.00 
 236    9:50   0.77   71.2    66    7.2   286    12.1   989.0    0.00 
 236   10:00   0.79   71.8    65    7.7   274    13.2   989.1    0.00 
 236   10:10   0.81   72.8    63    6.8   276    11.2   989.1    0.00 
 236   10:20   0.83   73.4    61    6.1   267    10.4   989.1    0.00 
 236   10:30   0.84   73.7    60    6.7   268    10.2   989.1    0.00 
 236   10:40   0.85   74.2    59    8.1   251    11.6   989.0    0.00 
 236   10:50   0.86   75.1    57    6.7   257    10.7   988.9    0.00 
 236   11:00   0.88   76.0    55    5.5   261    10.3   988.8    0.00 
 236   11:10   0.89   75.5    56    7.6   267    14.0   988.7    0.00 
 236   11:20   0.89   75.9    54    3.9   294    11.1   988.6    0.00 
 236   11:30   0.90   77.3    51    6.2   251    11.6   988.6    0.00 
 236   11:40   0.90   78.0    50    6.8   245    11.5   988.6    0.00 
 236   11:50   0.87   77.8    50    7.3   261    11.6   988.5    0.00 
 236   12:00   0.90   78.4    49    4.8   264     9.3   988.5    0.00 
 236   12:10   0.90   79.4    48    8.3   261    13.4   988.4    0.00 
 236   12:20   0.89   79.6    48    6.8   252    12.3   988.3    0.00 
 236   12:30   0.89   80.4    46    5.8   282    12.4   988.2    0.00 

Return to Elliot Chaparral Reserve graphs page.


Western Regional Climate Center,wrcc@dri.edu